sensor_id;sensor_type;location;lat;lon;timestamp;temperature;humidity
56729;DHT22;42612;52.232;7.560;2024-01-11T00:00:34;2.80;47.20
56729;DHT22;42612;52.232;7.560;2024-01-11T00:03:00;2.80;47.30
56729;DHT22;42612;52.232;7.560;2024-01-11T00:05:26;2.80;47.10
56729;DHT22;42612;52.232;7.560;2024-01-11T00:07:52;2.80;47.80
56729;DHT22;42612;52.232;7.560;2024-01-11T00:10:18;2.80;47.30
56729;DHT22;42612;52.232;7.560;2024-01-11T00:12:44;2.80;47.50
56729;DHT22;42612;52.232;7.560;2024-01-11T00:15:10;2.80;47.60
56729;DHT22;42612;52.232;7.560;2024-01-11T00:17:36;2.70;47.50
56729;DHT22;42612;52.232;7.560;2024-01-11T00:20:02;2.70;47.40
56729;DHT22;42612;52.232;7.560;2024-01-11T00:22:28;2.70;47.40
56729;DHT22;42612;52.232;7.560;2024-01-11T00:24:53;2.60;47.70
56729;DHT22;42612;52.232;7.560;2024-01-11T00:27:19;2.60;47.90
56729;DHT22;42612;52.232;7.560;2024-01-11T00:29:45;2.60;47.70
56729;DHT22;42612;52.232;7.560;2024-01-11T00:32:11;2.50;47.40
56729;DHT22;42612;52.232;7.560;2024-01-11T00:34:36;2.40;47.40
56729;DHT22;42612;52.232;7.560;2024-01-11T00:37:02;2.40;47.50
56729;DHT22;42612;52.232;7.560;2024-01-11T00:39:28;2.30;47.60
56729;DHT22;42612;52.232;7.560;2024-01-11T00:41:55;2.20;47.70
56729;DHT22;42612;52.232;7.560;2024-01-11T00:44:20;2.20;47.70
56729;DHT22;42612;52.232;7.560;2024-01-11T00:46:46;2.10;48.10
56729;DHT22;42612;52.232;7.560;2024-01-11T00:49:12;2.00;48.00
56729;DHT22;42612;52.232;7.560;2024-01-11T00:51:38;2.00;47.90
56729;DHT22;42612;52.232;7.560;2024-01-11T00:54:03;1.90;47.80
56729;DHT22;42612;52.232;7.560;2024-01-11T00:56:29;1.80;47.80
56729;DHT22;42612;52.232;7.560;2024-01-11T00:58:55;1.80;48.00
56729;DHT22;42612;52.232;7.560;2024-01-11T01:01:21;1.70;48.00
56729;DHT22;42612;52.232;7.560;2024-01-11T01:03:46;1.70;48.20
56729;DHT22;42612;52.232;7.560;2024-01-11T01:06:12;1.60;48.50
56729;DHT22;42612;52.232;7.560;2024-01-11T01:08:38;1.60;48.70
56729;DHT22;42612;52.232;7.560;2024-01-11T01:11:03;1.50;49.10
56729;DHT22;42612;52.232;7.560;2024-01-11T01:13:30;1.50;48.60
56729;DHT22;42612;52.232;7.560;2024-01-11T01:15:56;1.40;48.80
56729;DHT22;42612;52.232;7.560;2024-01-11T01:18:21;1.40;48.70
56729;DHT22;42612;52.232;7.560;2024-01-11T01:20:47;1.30;48.70
56729;DHT22;42612;52.232;7.560;2024-01-11T01:23:13;1.30;48.80
56729;DHT22;42612;52.232;7.560;2024-01-11T01:25:39;1.20;48.90
56729;DHT22;42612;52.232;7.560;2024-01-11T01:28:05;1.20;48.90
56729;DHT22;42612;52.232;7.560;2024-01-11T01:30:30;1.20;48.90
56729;DHT22;42612;52.232;7.560;2024-01-11T01:32:56;1.10;49.70
56729;DHT22;42612;52.232;7.560;2024-01-11T01:35:22;1.10;49.60
56729;DHT22;42612;52.232;7.560;2024-01-11T01:37:47;1.10;49.70
56729;DHT22;42612;52.232;7.560;2024-01-11T01:40:13;1.10;49.70
56729;DHT22;42612;52.232;7.560;2024-01-11T01:42:43;1.10;50.00
56729;DHT22;42612;52.232;7.560;2024-01-11T01:45:12;1.10;50.20
56729;DHT22;42612;52.232;7.560;2024-01-11T01:47:39;1.10;50.30
56729;DHT22;42612;52.232;7.560;2024-01-11T01:50:06;1.10;50.40
56729;DHT22;42612;52.232;7.560;2024-01-11T01:52:33;1.10;50.20
56729;DHT22;42612;52.232;7.560;2024-01-11T01:55:01;1.10;49.90
56729;DHT22;42612;52.232;7.560;2024-01-11T01:57:28;1.10;50.00
56729;DHT22;42612;52.232;7.560;2024-01-11T01:59:54;1.10;50.10
56729;DHT22;42612;52.232;7.560;2024-01-11T02:02:20;1.10;50.00
56729;DHT22;42612;52.232;7.560;2024-01-11T02:04:47;1.10;50.30
56729;DHT22;42612;52.232;7.560;2024-01-11T02:07:13;1.20;50.40
56729;DHT22;42612;52.232;7.560;2024-01-11T02:09:40;1.30;50.20
56729;DHT22;42612;52.232;7.560;2024-01-11T02:12:06;1.30;50.10
56729;DHT22;42612;52.232;7.560;2024-01-11T02:14:37;1.30;50.30
56729;DHT22;42612;52.232;7.560;2024-01-11T02:17:03;1.20;49.90
56729;DHT22;42612;52.232;7.560;2024-01-11T02:19:29;1.20;49.90
56729;DHT22;42612;52.232;7.560;2024-01-11T02:21:54;1.10;49.70
56729;DHT22;42612;52.232;7.560;2024-01-11T02:24:22;1.10;50.20
56729;DHT22;42612;52.232;7.560;2024-01-11T02:26:58;1.00;50.70
56729;DHT22;42612;52.232;7.560;2024-01-11T02:29:29;1.00;51.30
56729;DHT22;42612;52.232;7.560;2024-01-11T02:31:56;1.00;50.90
56729;DHT22;42612;52.232;7.560;2024-01-11T02:34:23;1.00;50.90
56729;DHT22;42612;52.232;7.560;2024-01-11T02:36:50;1.00;50.80
56729;DHT22;42612;52.232;7.560;2024-01-11T02:39:17;1.00;50.60
56729;DHT22;42612;52.232;7.560;2024-01-11T02:41:44;0.90;50.70
56729;DHT22;42612;52.232;7.560;2024-01-11T02:44:11;0.90;50.70
56729;DHT22;42612;52.232;7.560;2024-01-11T02:46:36;0.90;50.70
56729;DHT22;42612;52.232;7.560;2024-01-11T02:49:02;0.90;51.00
56729;DHT22;42612;52.232;7.560;2024-01-11T02:51:28;0.90;51.60
56729;DHT22;42612;52.232;7.560;2024-01-11T02:53:54;0.90;51.00
56729;DHT22;42612;52.232;7.560;2024-01-11T02:56:19;0.90;50.70
56729;DHT22;42612;52.232;7.560;2024-01-11T02:58:45;0.90;50.50
56729;DHT22;42612;52.232;7.560;2024-01-11T03:01:11;0.80;50.40
56729;DHT22;42612;52.232;7.560;2024-01-11T03:03:36;0.80;50.70
56729;DHT22;42612;52.232;7.560;2024-01-11T03:06:02;0.70;51.00
56729;DHT22;42612;52.232;7.560;2024-01-11T03:08:29;0.60;52.00
56729;DHT22;42612;52.232;7.560;2024-01-11T03:10:54;0.60;51.40
56729;DHT22;42612;52.232;7.560;2024-01-11T03:13:20;0.60;52.20
56729;DHT22;42612;52.232;7.560;2024-01-11T03:15:46;0.70;52.10
56729;DHT22;42612;52.232;7.560;2024-01-11T03:18:12;0.70;51.80
56729;DHT22;42612;52.232;7.560;2024-01-11T03:20:38;0.80;51.80
56729;DHT22;42612;52.232;7.560;2024-01-11T03:23:03;0.90;52.60
56729;DHT22;42612;52.232;7.560;2024-01-11T03:25:29;0.90;52.50
56729;DHT22;42612;52.232;7.560;2024-01-11T03:27:55;0.90;51.30
56729;DHT22;42612;52.232;7.560;2024-01-11T03:30:21;0.90;51.10
56729;DHT22;42612;52.232;7.560;2024-01-11T03:32:47;0.90;51.50
56729;DHT22;42612;52.232;7.560;2024-01-11T03:35:13;0.90;51.60
56729;DHT22;42612;52.232;7.560;2024-01-11T03:37:38;0.90;52.10
56729;DHT22;42612;52.232;7.560;2024-01-11T03:40:04;1.00;52.10
56729;DHT22;42612;52.232;7.560;2024-01-11T03:42:31;1.00;51.80
56729;DHT22;42612;52.232;7.560;2024-01-11T03:44:56;1.00;51.40
56729;DHT22;42612;52.232;7.560;2024-01-11T03:47:22;1.10;51.40
56729;DHT22;42612;52.232;7.560;2024-01-11T03:49:48;1.10;51.30
56729;DHT22;42612;52.232;7.560;2024-01-11T03:52:13;1.20;51.30
56729;DHT22;42612;52.232;7.560;2024-01-11T03:54:39;1.30;51.30
56729;DHT22;42612;52.232;7.560;2024-01-11T03:57:05;1.30;51.00
56729;DHT22;42612;52.232;7.560;2024-01-11T03:59:32;1.40;51.00
56729;DHT22;42612;52.232;7.560;2024-01-11T04:01:58;1.40;51.10
56729;DHT22;42612;52.232;7.560;2024-01-11T04:04:24;1.50;51.60
56729;DHT22;42612;52.232;7.560;2024-01-11T04:06:51;1.50;50.80
56729;DHT22;42612;52.232;7.560;2024-01-11T04:09:20;1.50;51.00
56729;DHT22;42612;52.232;7.560;2024-01-11T04:11:46;1.50;50.60
56729;DHT22;42612;52.232;7.560;2024-01-11T04:14:12;1.50;50.30
56729;DHT22;42612;52.232;7.560;2024-01-11T04:16:41;1.40;50.50
56729;DHT22;42612;52.232;7.560;2024-01-11T04:19:10;1.30;50.70
56729;DHT22;42612;52.232;7.560;2024-01-11T04:21:36;1.30;51.00
56729;DHT22;42612;52.232;7.560;2024-01-11T04:24:04;1.30;51.20
56729;DHT22;42612;52.232;7.560;2024-01-11T04:26:34;1.30;51.30
56729;DHT22;42612;52.232;7.560;2024-01-11T04:29:00;1.30;51.40
56729;DHT22;42612;52.232;7.560;2024-01-11T04:31:26;1.20;51.30
56729;DHT22;42612;52.232;7.560;2024-01-11T04:33:52;1.20;51.40
56729;DHT22;42612;52.232;7.560;2024-01-11T04:36:18;1.10;50.70
56729;DHT22;42612;52.232;7.560;2024-01-11T04:38:44;1.00;51.10
56729;DHT22;42612;52.232;7.560;2024-01-11T04:41:10;0.90;51.40
56729;DHT22;42612;52.232;7.560;2024-01-11T04:43:38;0.90;51.50
56729;DHT22;42612;52.232;7.560;2024-01-11T04:46:21;0.90;51.90
56729;DHT22;42612;52.232;7.560;2024-01-11T04:48:48;1.00;51.70
56729;DHT22;42612;52.232;7.560;2024-01-11T04:51:16;1.00;51.60
56729;DHT22;42612;52.232;7.560;2024-01-11T04:53:43;1.10;52.30
56729;DHT22;42612;52.232;7.560;2024-01-11T04:56:11;1.10;52.50
56729;DHT22;42612;52.232;7.560;2024-01-11T04:58:42;1.20;52.10
56729;DHT22;42612;52.232;7.560;2024-01-11T05:01:15;1.20;51.80
56729;DHT22;42612;52.232;7.560;2024-01-11T05:03:46;1.30;51.90
56729;DHT22;42612;52.232;7.560;2024-01-11T05:06:19;1.30;51.70
56729;DHT22;42612;52.232;7.560;2024-01-11T05:08:51;1.40;51.60
56729;DHT22;42612;52.232;7.560;2024-01-11T05:11:22;1.40;51.40
56729;DHT22;42612;52.232;7.560;2024-01-11T05:13:52;1.40;51.70
56729;DHT22;42612;52.232;7.560;2024-01-11T05:16:22;1.50;51.50
56729;DHT22;42612;52.232;7.560;2024-01-11T05:18:49;1.50;51.20
56729;DHT22;42612;52.232;7.560;2024-01-11T05:21:15;1.50;50.80
56729;DHT22;42612;52.232;7.560;2024-01-11T05:23:41;1.50;50.90
56729;DHT22;42612;52.232;7.560;2024-01-11T05:26:08;1.40;51.10
56729;DHT22;42612;52.232;7.560;2024-01-11T05:28:34;1.30;51.00
56729;DHT22;42612;52.232;7.560;2024-01-11T05:31:00;1.30;51.10
56729;DHT22;42612;52.232;7.560;2024-01-11T05:33:26;1.20;51.40
56729;DHT22;42612;52.232;7.560;2024-01-11T05:35:52;1.10;51.80
56729;DHT22;42612;52.232;7.560;2024-01-11T05:38:19;1.10;51.70
56729;DHT22;42612;52.232;7.560;2024-01-11T05:40:45;1.10;52.00
56729;DHT22;42612;52.232;7.560;2024-01-11T05:43:11;1.00;52.20
56729;DHT22;42612;52.232;7.560;2024-01-11T05:45:37;1.00;51.70
56729;DHT22;42612;52.232;7.560;2024-01-11T05:48:02;0.90;51.30
56729;DHT22;42612;52.232;7.560;2024-01-11T05:50:31;0.80;51.40
56729;DHT22;42612;52.232;7.560;2024-01-11T05:52:57;0.70;51.80
56729;DHT22;42612;52.232;7.560;2024-01-11T05:55:22;0.70;52.30
56729;DHT22;42612;52.232;7.560;2024-01-11T05:57:48;0.70;52.00
56729;DHT22;42612;52.232;7.560;2024-01-11T06:00:14;0.60;51.50
56729;DHT22;42612;52.232;7.560;2024-01-11T06:02:40;0.60;51.30
56729;DHT22;42612;52.232;7.560;2024-01-11T06:05:10;0.50;51.20
56729;DHT22;42612;52.232;7.560;2024-01-11T06:07:37;0.30;51.50
56729;DHT22;42612;52.232;7.560;2024-01-11T06:10:04;0.20;51.60
56729;DHT22;42612;52.232;7.560;2024-01-11T06:12:31;0.00;51.70
56729;DHT22;42612;52.232;7.560;2024-01-11T06:14:57;-0.10;52.30
56729;DHT22;42612;52.232;7.560;2024-01-11T06:17:23;-0.20;52.10
56729;DHT22;42612;52.232;7.560;2024-01-11T06:19:49;-0.20;52.70
56729;DHT22;42612;52.232;7.560;2024-01-11T06:22:15;-0.30;52.80
56729;DHT22;42612;52.232;7.560;2024-01-11T06:24:41;-0.30;53.40
56729;DHT22;42612;52.232;7.560;2024-01-11T06:27:07;-0.30;53.90
56729;DHT22;42612;52.232;7.560;2024-01-11T06:29:33;-0.20;53.90
56729;DHT22;42612;52.232;7.560;2024-01-11T06:31:58;-0.20;53.80
56729;DHT22;42612;52.232;7.560;2024-01-11T06:34:24;0.00;53.80
56729;DHT22;42612;52.232;7.560;2024-01-11T06:36:50;0.10;53.80
56729;DHT22;42612;52.232;7.560;2024-01-11T06:39:16;0.10;54.40
56729;DHT22;42612;52.232;7.560;2024-01-11T06:41:42;0.30;53.50
56729;DHT22;42612;52.232;7.560;2024-01-11T06:44:09;0.40;53.60
56729;DHT22;42612;52.232;7.560;2024-01-11T06:46:34;0.50;53.90
56729;DHT22;42612;52.232;7.560;2024-01-11T06:49:01;0.50;53.20
56729;DHT22;42612;52.232;7.560;2024-01-11T06:51:27;0.50;53.60
56729;DHT22;42612;52.232;7.560;2024-01-11T06:53:53;0.50;53.00
56729;DHT22;42612;52.232;7.560;2024-01-11T06:56:19;0.50;52.90
56729;DHT22;42612;52.232;7.560;2024-01-11T06:58:46;0.50;53.00
56729;DHT22;42612;52.232;7.560;2024-01-11T07:01:13;0.50;53.10
56729;DHT22;42612;52.232;7.560;2024-01-11T07:03:39;0.50;53.00
56729;DHT22;42612;52.232;7.560;2024-01-11T07:06:05;0.60;52.80
56729;DHT22;42612;52.232;7.560;2024-01-11T07:08:32;0.60;53.00
56729;DHT22;42612;52.232;7.560;2024-01-11T07:11:00;0.60;53.70
56729;DHT22;42612;52.232;7.560;2024-01-11T07:13:27;0.70;53.70
56729;DHT22;42612;52.232;7.560;2024-01-11T07:15:55;0.70;53.60
56729;DHT22;42612;52.232;7.560;2024-01-11T07:18:22;0.80;53.70
56729;DHT22;42612;52.232;7.560;2024-01-11T07:20:48;0.80;53.10
56729;DHT22;42612;52.232;7.560;2024-01-11T07:23:14;0.80;53.40
56729;DHT22;42612;52.232;7.560;2024-01-11T07:25:40;0.80;52.60
56729;DHT22;42612;52.232;7.560;2024-01-11T07:28:07;0.70;52.10
56729;DHT22;42612;52.232;7.560;2024-01-11T07:30:32;0.60;52.40
56729;DHT22;42612;52.232;7.560;2024-01-11T07:32:58;0.50;52.60
56729;DHT22;42612;52.232;7.560;2024-01-11T07:35:24;0.50;52.80
56729;DHT22;42612;52.232;7.560;2024-01-11T07:37:50;0.40;53.10
56729;DHT22;42612;52.232;7.560;2024-01-11T07:40:16;0.40;53.30
56729;DHT22;42612;52.232;7.560;2024-01-11T07:42:42;0.40;53.90
56729;DHT22;42612;52.232;7.560;2024-01-11T07:45:09;0.40;53.40
56729;DHT22;42612;52.232;7.560;2024-01-11T07:47:36;0.50;53.20
56729;DHT22;42612;52.232;7.560;2024-01-11T07:50:03;0.50;53.20
56729;DHT22;42612;52.232;7.560;2024-01-11T07:52:32;0.60;53.40
56729;DHT22;42612;52.232;7.560;2024-01-11T07:54:58;0.70;53.50
56729;DHT22;42612;52.232;7.560;2024-01-11T07:57:32;0.70;53.70
56729;DHT22;42612;52.232;7.560;2024-01-11T07:59:58;0.80;53.30
56729;DHT22;42612;52.232;7.560;2024-01-11T08:02:28;0.90;53.00
56729;DHT22;42612;52.232;7.560;2024-01-11T08:04:54;0.90;52.90
56729;DHT22;42612;52.232;7.560;2024-01-11T08:07:20;1.00;52.80
56729;DHT22;42612;52.232;7.560;2024-01-11T08:09:47;1.10;53.00
56729;DHT22;42612;52.232;7.560;2024-01-11T08:12:14;1.10;53.00
56729;DHT22;42612;52.232;7.560;2024-01-11T08:14:39;1.10;52.80
56729;DHT22;42612;52.232;7.560;2024-01-11T08:17:07;1.20;52.70
56729;DHT22;42612;52.232;7.560;2024-01-11T08:19:34;1.20;53.00
56729;DHT22;42612;52.232;7.560;2024-01-11T08:22:01;1.20;53.40
56729;DHT22;42612;52.232;7.560;2024-01-11T08:24:27;1.30;53.30
56729;DHT22;42612;52.232;7.560;2024-01-11T08:26:53;1.30;52.90
56729;DHT22;42612;52.232;7.560;2024-01-11T08:29:19;1.20;53.10
56729;DHT22;42612;52.232;7.560;2024-01-11T08:31:45;1.20;52.70
56729;DHT22;42612;52.232;7.560;2024-01-11T08:34:12;1.10;52.20
56729;DHT22;42612;52.232;7.560;2024-01-11T08:36:37;1.10;52.30
56729;DHT22;42612;52.232;7.560;2024-01-11T08:39:04;1.00;52.50
56729;DHT22;42612;52.232;7.560;2024-01-11T08:41:31;0.90;52.90
56729;DHT22;42612;52.232;7.560;2024-01-11T08:43:58;0.90;53.00
56729;DHT22;42612;52.232;7.560;2024-01-11T08:46:27;0.80;52.90
56729;DHT22;42612;52.232;7.560;2024-01-11T08:48:54;0.80;53.10
56729;DHT22;42612;52.232;7.560;2024-01-11T08:51:21;0.80;53.40
56729;DHT22;42612;52.232;7.560;2024-01-11T08:53:47;0.80;53.80
56729;DHT22;42612;52.232;7.560;2024-01-11T08:56:13;0.90;54.90
56729;DHT22;42612;52.232;7.560;2024-01-11T08:58:42;0.90;55.10
56729;DHT22;42612;52.232;7.560;2024-01-11T09:01:08;0.90;55.00
56729;DHT22;42612;52.232;7.560;2024-01-11T09:03:34;1.00;55.00
56729;DHT22;42612;52.232;7.560;2024-01-11T09:06:01;1.10;55.10
56729;DHT22;42612;52.232;7.560;2024-01-11T09:08:28;1.20;54.90
56729;DHT22;42612;52.232;7.560;2024-01-11T09:10:54;1.30;54.40
56729;DHT22;42612;52.232;7.560;2024-01-11T09:13:19;1.40;54.30
56729;DHT22;42612;52.232;7.560;2024-01-11T09:15:45;1.50;54.10
56729;DHT22;42612;52.232;7.560;2024-01-11T09:18:11;1.60;54.10
56729;DHT22;42612;52.232;7.560;2024-01-11T09:20:36;1.70;54.20
56729;DHT22;42612;52.232;7.560;2024-01-11T09:23:02;1.80;54.10
56729;DHT22;42612;52.232;7.560;2024-01-11T09:25:32;1.90;54.00
56729;DHT22;42612;52.232;7.560;2024-01-11T09:27:58;1.90;53.80
56729;DHT22;42612;52.232;7.560;2024-01-11T09:30:24;2.10;54.00
56729;DHT22;42612;52.232;7.560;2024-01-11T09:32:50;2.10;54.40
56729;DHT22;42612;52.232;7.560;2024-01-11T09:35:16;2.20;54.00
56729;DHT22;42612;52.232;7.560;2024-01-11T09:37:42;2.20;54.00
56729;DHT22;42612;52.232;7.560;2024-01-11T09:40:12;2.30;53.90
56729;DHT22;42612;52.232;7.560;2024-01-11T09:42:38;2.40;53.70
56729;DHT22;42612;52.232;7.560;2024-01-11T09:45:17;2.50;53.50
56729;DHT22;42612;52.232;7.560;2024-01-11T09:47:43;2.50;53.40
56729;DHT22;42612;52.232;7.560;2024-01-11T09:50:14;2.60;53.60
56729;DHT22;42612;52.232;7.560;2024-01-11T09:52:46;2.60;53.30
56729;DHT22;42612;52.232;7.560;2024-01-11T09:55:14;2.70;53.40
56729;DHT22;42612;52.232;7.560;2024-01-11T09:57:44;2.70;53.40
56729;DHT22;42612;52.232;7.560;2024-01-11T10:00:22;2.80;53.50
56729;DHT22;42612;52.232;7.560;2024-01-11T10:02:48;2.80;53.60
56729;DHT22;42612;52.232;7.560;2024-01-11T10:05:14;2.90;53.50
56729;DHT22;42612;52.232;7.560;2024-01-11T10:07:44;2.90;53.60
56729;DHT22;42612;52.232;7.560;2024-01-11T10:10:11;3.00;53.80
56729;DHT22;42612;52.232;7.560;2024-01-11T10:12:37;3.00;53.80
56729;DHT22;42612;52.232;7.560;2024-01-11T10:15:08;3.10;53.70
56729;DHT22;42612;52.232;7.560;2024-01-11T10:17:41;3.10;53.80
56729;DHT22;42612;52.232;7.560;2024-01-11T10:20:11;3.10;54.10
56729;DHT22;42612;52.232;7.560;2024-01-11T10:22:39;3.10;54.00
56729;DHT22;42612;52.232;7.560;2024-01-11T10:25:11;3.10;53.90
56729;DHT22;42612;52.232;7.560;2024-01-11T10:27:41;3.10;54.10
56729;DHT22;42612;52.232;7.560;2024-01-11T10:30:09;3.20;53.90
56729;DHT22;42612;52.232;7.560;2024-01-11T10:32:35;3.20;54.30
56729;DHT22;42612;52.232;7.560;2024-01-11T10:35:02;3.20;53.60
56729;DHT22;42612;52.232;7.560;2024-01-11T10:37:30;3.20;53.80
56729;DHT22;42612;52.232;7.560;2024-01-11T10:40:03;3.20;54.70
56729;DHT22;42612;52.232;7.560;2024-01-11T10:42:36;3.20;54.20
56729;DHT22;42612;52.232;7.560;2024-01-11T10:47:54;3.30;54.50
56729;DHT22;42612;52.232;7.560;2024-01-11T10:50:23;3.30;54.80
56729;DHT22;42612;52.232;7.560;2024-01-11T10:55:38;3.40;55.50
56729;DHT22;42612;52.232;7.560;2024-01-11T10:58:06;3.40;55.20
56729;DHT22;42612;52.232;7.560;2024-01-11T11:00:33;3.40;55.40
56729;DHT22;42612;52.232;7.560;2024-01-11T11:03:01;3.50;55.60
56729;DHT22;42612;52.232;7.560;2024-01-11T11:05:31;3.50;55.60
56729;DHT22;42612;52.232;7.560;2024-01-11T11:08:01;3.50;55.60
56729;DHT22;42612;52.232;7.560;2024-01-11T11:10:32;3.50;55.60
56729;DHT22;42612;52.232;7.560;2024-01-11T11:12:59;3.60;56.00
56729;DHT22;42612;52.232;7.560;2024-01-11T11:15:28;3.50;55.90
56729;DHT22;42612;52.232;7.560;2024-01-11T11:17:55;3.60;56.10
56729;DHT22;42612;52.232;7.560;2024-01-11T11:20:22;3.60;56.10
56729;DHT22;42612;52.232;7.560;2024-01-11T11:23:07;3.70;56.20
56729;DHT22;42612;52.232;7.560;2024-01-11T11:25:34;3.70;56.80
56729;DHT22;42612;52.232;7.560;2024-01-11T11:28:00;3.80;56.20
56729;DHT22;42612;52.232;7.560;2024-01-11T11:30:32;3.80;56.10
56729;DHT22;42612;52.232;7.560;2024-01-11T11:33:11;3.80;56.10
56729;DHT22;42612;52.232;7.560;2024-01-11T11:35:42;3.80;56.60
56729;DHT22;42612;52.232;7.560;2024-01-11T11:38:08;3.80;56.10
56729;DHT22;42612;52.232;7.560;2024-01-11T11:40:43;3.80;56.20
56729;DHT22;42612;52.232;7.560;2024-01-11T11:43:11;3.80;56.20
56729;DHT22;42612;52.232;7.560;2024-01-11T11:45:38;3.90;57.20
56729;DHT22;42612;52.232;7.560;2024-01-11T11:51:10;3.90;57.40
56729;DHT22;42612;52.232;7.560;2024-01-11T11:53:43;3.90;57.20
56729;DHT22;42612;52.232;7.560;2024-01-11T11:56:11;3.90;57.20
56729;DHT22;42612;52.232;7.560;2024-01-11T11:58:38;3.90;56.30
56729;DHT22;42612;52.232;7.560;2024-01-11T12:01:08;3.90;56.70
56729;DHT22;42612;52.232;7.560;2024-01-11T12:03:38;3.90;56.90
56729;DHT22;42612;52.232;7.560;2024-01-11T12:06:08;4.00;57.50
56729;DHT22;42612;52.232;7.560;2024-01-11T12:08:36;4.00;57.20
56729;DHT22;42612;52.232;7.560;2024-01-11T12:11:03;4.00;57.20
56729;DHT22;42612;52.232;7.560;2024-01-11T12:13:29;4.10;57.40
56729;DHT22;42612;52.232;7.560;2024-01-11T12:15:56;4.10;57.60
56729;DHT22;42612;52.232;7.560;2024-01-11T12:18:22;4.10;57.40
56729;DHT22;42612;52.232;7.560;2024-01-11T12:20:48;4.10;57.50
56729;DHT22;42612;52.232;7.560;2024-01-11T12:23:14;4.10;57.40
56729;DHT22;42612;52.232;7.560;2024-01-11T12:25:41;4.10;57.40
56729;DHT22;42612;52.232;7.560;2024-01-11T12:28:06;4.20;57.50
56729;DHT22;42612;52.232;7.560;2024-01-11T12:30:33;4.20;57.60
56729;DHT22;42612;52.232;7.560;2024-01-11T12:32:59;4.20;57.60
56729;DHT22;42612;52.232;7.560;2024-01-11T12:35:28;4.20;57.60
56729;DHT22;42612;52.232;7.560;2024-01-11T12:37:56;4.30;57.70
56729;DHT22;42612;52.232;7.560;2024-01-11T12:40:24;4.30;57.60
56729;DHT22;42612;52.232;7.560;2024-01-11T12:42:50;4.30;57.50
56729;DHT22;42612;52.232;7.560;2024-01-11T12:45:19;4.40;57.50
56729;DHT22;42612;52.232;7.560;2024-01-11T12:47:45;4.40;57.60
56729;DHT22;42612;52.232;7.560;2024-01-11T12:50:12;4.40;57.50
56729;DHT22;42612;52.232;7.560;2024-01-11T12:52:38;4.40;57.60
56729;DHT22;42612;52.232;7.560;2024-01-11T12:55:08;4.40;57.70
56729;DHT22;42612;52.232;7.560;2024-01-11T12:57:43;4.50;57.80
56729;DHT22;42612;52.232;7.560;2024-01-11T13:00:13;4.50;57.60
56729;DHT22;42612;52.232;7.560;2024-01-11T13:02:40;4.50;57.80
56729;DHT22;42612;52.232;7.560;2024-01-11T13:05:06;4.50;57.70
56729;DHT22;42612;52.232;7.560;2024-01-11T13:07:36;4.50;57.70
56729;DHT22;42612;52.232;7.560;2024-01-11T13:10:03;4.50;57.90
56729;DHT22;42612;52.232;7.560;2024-01-11T13:12:30;4.50;57.90
56729;DHT22;42612;52.232;7.560;2024-01-11T13:14:55;4.50;58.00
56729;DHT22;42612;52.232;7.560;2024-01-11T13:17:21;4.60;58.20
56729;DHT22;42612;52.232;7.560;2024-01-11T13:19:47;4.60;58.30
56729;DHT22;42612;52.232;7.560;2024-01-11T13:22:13;4.60;58.30
56729;DHT22;42612;52.232;7.560;2024-01-11T13:24:39;4.70;58.30
56729;DHT22;42612;52.232;7.560;2024-01-11T13:27:04;4.70;58.80
56729;DHT22;42612;52.232;7.560;2024-01-11T13:29:30;4.70;58.10
56729;DHT22;42612;52.232;7.560;2024-01-11T13:31:56;4.70;58.00
56729;DHT22;42612;52.232;7.560;2024-01-11T13:34:22;4.70;58.10
56729;DHT22;42612;52.232;7.560;2024-01-11T13:36:48;4.70;58.20
56729;DHT22;42612;52.232;7.560;2024-01-11T13:39:14;4.70;58.20
56729;DHT22;42612;52.232;7.560;2024-01-11T13:41:43;4.70;58.40
56729;DHT22;42612;52.232;7.560;2024-01-11T13:44:09;4.80;57.70
56729;DHT22;42612;52.232;7.560;2024-01-11T13:46:36;4.80;58.40
56729;DHT22;42612;52.232;7.560;2024-01-11T13:49:02;4.80;58.40
56729;DHT22;42612;52.232;7.560;2024-01-11T13:51:28;4.80;58.40
56729;DHT22;42612;52.232;7.560;2024-01-11T13:53:54;4.90;58.40
56729;DHT22;42612;52.232;7.560;2024-01-11T13:56:19;4.90;58.40
56729;DHT22;42612;52.232;7.560;2024-01-11T13:58:45;4.90;58.30
56729;DHT22;42612;52.232;7.560;2024-01-11T14:01:12;4.90;58.30
56729;DHT22;42612;52.232;7.560;2024-01-11T14:03:38;5.00;58.40
56729;DHT22;42612;52.232;7.560;2024-01-11T14:06:05;5.00;58.60
56729;DHT22;42612;52.232;7.560;2024-01-11T14:08:30;5.00;58.50
56729;DHT22;42612;52.232;7.560;2024-01-11T14:10:56;5.10;58.40
56729;DHT22;42612;52.232;7.560;2024-01-11T14:13:22;5.10;58.30
56729;DHT22;42612;52.232;7.560;2024-01-11T14:15:48;5.10;58.30
56729;DHT22;42612;52.232;7.560;2024-01-11T14:18:15;5.10;58.30
56729;DHT22;42612;52.232;7.560;2024-01-11T14:20:40;5.10;58.30
56729;DHT22;42612;52.232;7.560;2024-01-11T14:23:06;5.10;58.20
56729;DHT22;42612;52.232;7.560;2024-01-11T14:25:32;5.20;58.80
56729;DHT22;42612;52.232;7.560;2024-01-11T14:27:57;5.20;58.00
56729;DHT22;42612;52.232;7.560;2024-01-11T14:30:23;5.10;58.00
56729;DHT22;42612;52.232;7.560;2024-01-11T14:32:49;5.10;58.20
56729;DHT22;42612;52.232;7.560;2024-01-11T14:35:15;5.10;58.10
56729;DHT22;42612;52.232;7.560;2024-01-11T14:37:42;5.10;58.20
56729;DHT22;42612;52.232;7.560;2024-01-11T14:40:10;5.10;58.30
56729;DHT22;42612;52.232;7.560;2024-01-11T14:42:36;5.10;58.40
56729;DHT22;42612;52.232;7.560;2024-01-11T14:45:03;5.10;58.50
56729;DHT22;42612;52.232;7.560;2024-01-11T14:47:29;5.10;58.60
56729;DHT22;42612;52.232;7.560;2024-01-11T14:49:57;5.20;58.70
56729;DHT22;42612;52.232;7.560;2024-01-11T14:52:23;5.20;58.70
56729;DHT22;42612;52.232;7.560;2024-01-11T14:54:48;5.20;58.50
56729;DHT22;42612;52.232;7.560;2024-01-11T14:57:15;5.20;58.50
56729;DHT22;42612;52.232;7.560;2024-01-11T14:59:41;5.20;58.50
56729;DHT22;42612;52.232;7.560;2024-01-11T15:02:07;5.30;58.70
56729;DHT22;42612;52.232;7.560;2024-01-11T15:04:33;5.30;58.70
56729;DHT22;42612;52.232;7.560;2024-01-11T15:06:58;5.30;58.70
56729;DHT22;42612;52.232;7.560;2024-01-11T15:09:24;5.30;58.70
56729;DHT22;42612;52.232;7.560;2024-01-11T15:11:51;5.30;58.80
56729;DHT22;42612;52.232;7.560;2024-01-11T15:14:17;5.40;58.80
56729;DHT22;42612;52.232;7.560;2024-01-11T15:16:43;5.40;58.70
56729;DHT22;42612;52.232;7.560;2024-01-11T15:19:13;5.40;59.40
56729;DHT22;42612;52.232;7.560;2024-01-11T15:21:39;5.40;58.60
56729;DHT22;42612;52.232;7.560;2024-01-11T15:24:06;5.40;58.60
56729;DHT22;42612;52.232;7.560;2024-01-11T15:26:32;5.40;58.70
56729;DHT22;42612;52.232;7.560;2024-01-11T15:28:58;5.40;58.70
56729;DHT22;42612;52.232;7.560;2024-01-11T15:31:24;5.50;58.70
56729;DHT22;42612;52.232;7.560;2024-01-11T15:33:51;5.40;58.60
56729;DHT22;42612;52.232;7.560;2024-01-11T15:36:17;5.50;58.90
56729;DHT22;42612;52.232;7.560;2024-01-11T15:38:44;5.50;58.80
56729;DHT22;42612;52.232;7.560;2024-01-11T15:41:10;5.50;58.90
56729;DHT22;42612;52.232;7.560;2024-01-11T15:43:36;5.50;58.90
56729;DHT22;42612;52.232;7.560;2024-01-11T15:46:02;5.50;58.90
56729;DHT22;42612;52.232;7.560;2024-01-11T15:48:28;5.50;58.90
56729;DHT22;42612;52.232;7.560;2024-01-11T15:50:55;5.50;58.90